Logan - 24 Hour Table
Date & TimeSolar
Radiation
(W/m²)
Wind
Speed
(mph)
Wind
Direction
(degrees)
Air
Temperature
(°F)
Relative
Humidity
(%)
Precipitation
(inches)
Barometric
Pressure
(inHg)
2017/01/17 18:00 4 2.9 355 9.7 82 0.00 30.21
2017/01/17 17:00 119 2.9 338 13.8 75 0.00 30.21
2017/01/17 16:00 276 3.0 291 13.8 73 0.00 30.22
2017/01/17 15:00 395 3.0 332 14.0 68 0.00 30.23
2017/01/17 14:00 470 3.3 295 12.2 71 0.00 30.23
2017/01/17 13:00 491 2.7 284 10.0 74 0.00 30.25
2017/01/17 12:00 425 2.2 297 8.5 83 0.00 30.28
2017/01/17 11:00 312 1.4 297 5.9 86 0.00 30.30
2017/01/17 10:00 159 0.7 289 4.0 89 0.00 30.30
2017/01/17 09:00 38 0.2 14 -0.4 88 0.00 30.30
2017/01/17 08:00 1 0.7 307 -1.8 89 0.00 30.28
2017/01/17 07:00 0 0.5 348 -1.8 88 0.00 30.27
2017/01/17 06:00 0 1.6 331 -1.4 89 0.00 30.26
2017/01/17 05:00 0 0.4 188 -0.7 87 0.00 30.26
2017/01/17 04:00 0 0.0 0 -1.1 89 0.00 30.27
2017/01/17 03:00 0 1.7 235 -1.8 89 0.00 30.27
2017/01/17 02:00 0 2.3 7 0.5 88 0.00 30.27
2017/01/17 01:00 0 2.2 188 0.8 92 0.00 30.26
2017/01/17 00:00 0 1.6 233 0.9 90 0.00 30.28
2017/01/16 23:00 0 1.9 7 2.9 91 0.00 30.29
2017/01/16 22:00 0 1.3 33 3.1 89 0.00 30.28
2017/01/16 21:00 0 3.6 208 3.8 93 0.00 30.28
2017/01/16 20:00 0 1.3 254 5.0 94 0.00 30.28
2017/01/16 19:00 0 1.9 0 7.0 90 0.00 30.27